Time;durP1;ratioP1;P1;durP2;ratioP2;P2;SDS_P1;SDS_P2;PMS_P1;PMS_P2;Temp;Humidity;BMP_temperature;BMP_pressure;BME280_temperature;BME280_humidity;BME280_pressure;Samples;Min_cycle;Max_cycle;Signal;HPM_P1;HPM_P2
2021/01/22 00:02:09;;;;;;;1.08;0.35;;;;;;;;;;5051239;28;20121;-57
2021/01/22 00:04:53;;;;;;;0.88;0.30;;;;;;;;;;5051799;28;20024;-56
2021/01/22 00:10:43;;;;;;;;;;;;;;;;;;5031422;28;20048;-56
2021/01/22 00:13:12;;;;;;;0.55;0.35;;;;;;;;;;5029734;28;19909;-57
2021/01/22 00:15:54;;;;;;;1.48;0.68;;;;;;;;;;5031632;28;20097;-57
2021/01/22 00:18:28;;;;;;;0.70;0.40;;;;;;;;;;5031995;28;20095;-57
2021/01/22 00:20:58;;;;;;;0.82;0.38;;;;;;;;;;5030761;28;20415;-58
2021/01/22 00:23:27;;;;;;;1.52;0.57;;;;;;;;;;5029293;28;20033;-57
2021/01/22 00:25:58;;;;;;;0.73;0.28;;;;;;;;;;5029267;28;20139;-58
2021/01/22 00:28:42;;;;;;;2.08;0.75;;;;;;;;;;5030711;28;20082;-58
2021/01/22 00:31:29;;;;;;;0.57;0.25;;;;;;;;;;5031234;28;20033;-58
2021/01/22 00:34:08;;;;;;;0.70;0.28;;;;;;;;;;5031246;28;20032;-58
2021/01/22 00:36:37;;;;;;;0.88;0.22;;;;;;;;;;5026727;28;20030;-58
2021/01/22 00:39:46;;;;;;;0.30;0.10;;;;;;;;;;5030589;28;20090;-58
2021/01/22 00:42:18;;;;;;;0.10;0.10;;;;;;;;;;5028952;28;20041;-58
2021/01/22 00:45:00;;;;;;;0.55;0.20;;;;;;;;;;5030841;28;20061;-55
2021/01/22 00:47:47;;;;;;;0.63;0.20;;;;;;;;;;5028261;28;20038;-57
2021/01/22 00:50:13;;;;;;;0.98;0.40;;;;;;;;;;5031915;28;20402;-56
2021/01/22 00:52:52;;;;;;;0.60;0.17;;;;;;;;;;5030783;28;20048;-58
2021/01/22 00:55:33;;;;;;;0.90;0.40;;;;;;;;;;5028045;28;20069;-58
2021/01/22 00:58:13;;;;;;;0.73;0.35;;;;;;;;;;5030668;28;20022;-58
2021/01/22 01:00:39;;;;;;;0.68;0.30;;;;;;;;;;5031249;28;20037;-57
2021/01/22 01:03:09;;;;;;;1.20;0.50;;;;;;;;;;5029444;28;20069;-58
2021/01/22 01:05:50;;;;;;;1.55;0.20;;;;;;;;;;5030369;28;20029;-59
2021/01/22 01:08:43;;;;;;;0.52;0.25;;;;;;;;;;5031198;28;20442;-58
2021/01/22 01:11:18;;;;;;;0.38;0.15;;;;;;;;;;5035481;28;20038;-57
2021/01/22 01:14:10;;;;;;;1.15;0.47;;;;;;;;;;5031593;28;20026;-55
2021/01/22 01:16:36;;;;;;;0.38;0.10;;;;;;;;;;5031278;28;20049;-57
2021/01/22 01:19:22;;;;;;;;;;;;;;;;;;;;;
2021/01/22 01:21:51;;;;;;;0.45;0.20;;;;;;;;;;5051880;28;20037;-56
2021/01/22 01:24:17;;;;;;;0.03;0.00;;;;;;;;;;5050343;28;20037;-54
2021/01/22 01:26:52;;;;;;;0.77;0.30;;;;;;;;;;5050785;28;20028;-57
2021/01/22 01:32:07;;;;;;;1.55;0.47;;;;;;;;;;5049884;28;20529;-58
2021/01/22 01:34:42;;;;;;;0.47;0.17;;;;;;;;;;5049860;28;20029;-56
2021/01/22 01:37:16;;;;;;;0.52;0.10;;;;;;;;;;5050097;28;20053;-57
2021/01/22 01:39:46;;;;;;;0.90;0.28;;;;;;;;;;5050340;28;20082;-56
2021/01/22 01:42:33;;;;;;;1.80;0.73;;;;;;;;;;5050871;28;20041;-57
2021/01/22 01:45:05;;;;;;;0.93;0.50;;;;;;;;;;5036161;28;20025;-58
2021/01/22 01:47:37;;;;;;;2.17;0.38;;;;;;;;;;5052663;28;20378;-57
2021/01/22 01:53:14;;;;;;;0.13;0.10;;;;;;;;;;5052897;28;20033;-56
2021/01/22 01:55:48;;;;;;;2.25;0.17;;;;;;;;;;5053125;28;20462;-54
2021/01/22 01:58:28;;;;;;;0.50;0.20;;;;;;;;;;5053464;28;20074;-54
2021/01/22 02:00:57;;;;;;;0.80;0.30;;;;;;;;;;5053615;28;20066;-56
2021/01/22 02:06:30;;;;;;;2.25;0.65;;;;;;;;;;5052907;28;20500;-55
2021/01/22 02:09:00;;;;;;;0.63;0.40;;;;;;;;;;5052120;28;20216;-57
2021/01/22 02:14:23;;;;;;;1.03;0.30;;;;;;;;;;5045890;28;20113;-56
2021/01/22 02:17:02;;;;;;;0.82;0.40;;;;;;;;;;5035339;28;20362;-57
2021/01/22 02:22:46;;;;;;;0.40;0.20;;;;;;;;;;5052387;28;20427;-57
2021/01/22 02:25:22;;;;;;;3.08;0.30;;;;;;;;;;5053195;28;20028;-56
2021/01/22 02:28:25;;;;;;;0.85;0.50;;;;;;;;;;5053578;28;20068;-55
2021/01/22 02:30:57;;;;;;;1.73;0.20;;;;;;;;;;5055264;28;20474;-56
2021/01/22 02:36:28;;;;;;;2.67;0.80;;;;;;;;;;5053884;28;20037;-57
2021/01/22 02:39:01;;;;;;;1.83;0.47;;;;;;;;;;5052506;28;20121;-57
2021/01/22 02:41:35;;;;;;;2.95;0.50;;;;;;;;;;5119473;27;20037;-56
2021/01/22 02:44:24;;;;;;;3.33;0.82;;;;;;;;;;5034571;28;20378;-57
2021/01/22 02:46:53;;;;;;;1.00;0.40;;;;;;;;;;5033954;28;20029;-57
2021/01/22 02:49:32;;;;;;;2.55;0.40;;;;;;;;;;5052458;28;20054;-56
2021/01/22 02:52:18;;;;;;;0.50;0.30;;;;;;;;;;5035338;28;20059;-57
2021/01/22 02:54:45;;;;;;;1.27;0.80;;;;;;;;;;5054025;28;20033;-57
2021/01/22 02:57:31;;;;;;;0.85;0.35;;;;;;;;;;5034618;28;20029;-57
2021/01/22 03:00:19;;;;;;;0.88;0.20;;;;;;;;;;5051500;28;20029;-55
2021/01/22 03:03:17;;;;;;;3.90;0.82;;;;;;;;;;5052840;28;20021;-56
2021/01/22 03:05:54;;;;;;;4.47;0.75;;;;;;;;;;5051596;28;20025;-55
2021/01/22 03:08:29;;;;;;;1.02;0.50;;;;;;;;;;5018433;28;20041;-57
2021/01/22 03:11:03;;;;;;;0.47;0.30;;;;;;;;;;5030207;28;20152;-56
2021/01/22 03:13:45;;;;;;;3.90;0.63;;;;;;;;;;5031720;28;20053;-58
2021/01/22 03:16:15;;;;;;;1.45;0.93;;;;;;;;;;5031254;28;20134;-55
2021/01/22 03:19:00;;;;;;;2.17;0.57;;;;;;;;;;5031237;28;20406;-58
2021/01/22 03:21:39;;;;;;;0.32;0.20;;;;;;;;;;5031794;28;20033;-56
2021/01/22 03:24:24;;;;;;;3.97;0.70;;;;;;;;;;5031347;28;20098;-54
2021/01/22 03:27:11;;;;;;;2.80;0.70;;;;;;;;;;5034729;28;20471;-57
2021/01/22 03:29:45;;;;;;;1.10;0.38;;;;;;;;;;5031649;28;20033;-58
2021/01/22 03:32:23;;;;;;;2.58;0.77;;;;;;;;;;5030841;28;20033;-55
2021/01/22 03:35:02;;;;;;;1.00;0.40;;;;;;;;;;5031007;28;20463;-57
2021/01/22 03:37:36;;;;;;;8.30;1.10;;;;;;;;;;5029862;28;20086;-57
2021/01/22 03:40:08;;;;;;;0.80;0.55;;;;;;;;;;5030460;28;20037;-54
2021/01/22 03:42:34;;;;;;;1.50;0.38;;;;;;;;;;5031576;28;20098;-58
2021/01/22 03:45:19;;;;;;;1.42;0.93;;;;;;;;;;5031199;28;20510;-56
2021/01/22 03:47:53;;;;;;;1.38;0.40;;;;;;;;;;5031443;28;20033;-55
2021/01/22 03:50:21;;;;;;;3.97;0.63;;;;;;;;;;5030497;28;20488;-57
2021/01/22 03:52:47;;;;;;;0.80;0.68;;;;;;;;;;5031386;28;20104;-57
2021/01/22 03:55:31;;;;;;;1.98;0.98;;;;;;;;;;5031304;28;20029;-56
2021/01/22 03:57:58;;;;;;;1.10;0.60;;;;;;;;;;5029075;28;20061;-56
2021/01/22 04:00:49;;;;;;;2.75;0.52;;;;;;;;;;5030871;28;20038;-57
2021/01/22 04:03:21;;;;;;;2.72;1.15;;;;;;;;;;5030175;28;20038;-54
2021/01/22 04:06:03;;;;;;;3.60;1.15;;;;;;;;;;5026917;28;20045;-56
2021/01/22 04:08:29;;;;;;;2.03;0.60;;;;;;;;;;4509727;28;15037918;-58
2021/01/22 04:10:58;;;;;;;1.40;0.77;;;;;;;;;;5031077;28;20090;-57
2021/01/22 04:13:43;;;;;;;;;;;;;;;;;;;;;
2021/01/22 04:16:13;;;;;;;0.38;0.20;;;;;;;;;;5031243;28;20488;-53
2021/01/22 04:21:49;;;;;;;1.15;0.70;;;;;;;;;;5027516;28;20042;-56
2021/01/22 04:24:35;;;;;;;2.60;0.75;;;;;;;;;;5031495;28;20026;-58
2021/01/22 04:27:10;;;;;;;1.30;0.68;;;;;;;;;;5013551;28;20034;-55
2021/01/22 04:29:49;;;;;;;1.10;0.55;;;;;;;;;;5031159;28;20036;-55
2021/01/22 04:35:11;;;;;;;0.73;0.43;;;;;;;;;;5017094;28;20129;-54
2021/01/22 04:37:46;;;;;;;6.85;1.27;;;;;;;;;;5012852;28;20022;-57
2021/01/22 04:40:15;;;;;;;1.80;0.98;;;;;;;;;;5037071;28;20060;-56
2021/01/22 04:45:46;;;;;;;1.30;0.57;;;;;;;;;;5020022;28;20052;-56
2021/01/22 04:48:15;;;;;;;2.03;0.70;;;;;;;;;;5031438;28;20034;-56
2021/01/22 04:51:00;;;;;;;2.17;0.70;;;;;;;;;;5012725;28;20026;-57
2021/01/22 04:56:26;;;;;;;1.95;0.52;;;;;;;;;;5018941;28;20038;-55
2021/01/22 04:58:56;;;;;;;0.70;0.32;;;;;;;;;;4996534;28;20136;-58
2021/01/22 05:01:26;;;;;;;0.98;0.40;;;;;;;;;;5012907;28;20037;-54
2021/01/22 05:04:00;;;;;;;2.67;0.73;;;;;;;;;;5046369;28;20036;-57
2021/01/22 05:06:42;;;;;;;0.95;0.50;;;;;;;;;;5031244;28;20030;-56
2021/01/22 05:09:20;;;;;;;2.00;0.52;;;;;;;;;;5029923;28;20062;-54
2021/01/22 05:12:01;;;;;;;1.98;0.35;;;;;;;;;;5031973;28;20043;-57
2021/01/22 05:15:00;;;;;;;1.13;0.55;;;;;;;;;;5030976;28;20037;-52
2021/01/22 05:17:34;;;;;;;0.98;0.47;;;;;;;;;;5030923;28;20030;-56
2021/01/22 05:20:18;;;;;;;;;;;;;;;;;;;;;
2021/01/22 05:23:07;;;;;;;0.40;0.20;;;;;;;;;;5033954;28;20042;-55
2021/01/22 05:26:17;;;;;;;2.72;0.43;;;;;;;;;;5043397;28;20041;-57
2021/01/22 05:28:53;;;;;;;0.10;0.08;;;;;;;;;;5046244;28;20072;-55
2021/01/22 05:31:25;;;;;;;0.45;0.20;;;;;;;;;;5034209;28;20026;-57
2021/01/22 05:33:58;;;;;;;3.20;0.32;;;;;;;;;;5033816;28;20025;-53
2021/01/22 05:36:35;;;;;;;1.08;0.32;;;;;;;;;;5015202;28;20048;-57
2021/01/22 05:39:07;;;;;;;0.68;0.30;;;;;;;;;;5033573;28;20053;-56
2021/01/22 05:45:13;;;;;;;1.10;0.20;;;;;;;;;;5033232;28;20025;-53
2021/01/22 05:47:54;;;;;;;0.55;0.15;;;;;;;;;;5033530;28;20026;-55
2021/01/22 05:50:43;;;;;;;0.52;0.22;;;;;;;;;;5015447;28;20035;-54
2021/01/22 05:53:22;;;;;;;1.42;0.32;;;;;;;;;;5017395;28;20029;-57
2021/01/22 05:56:10;;;;;;;0.20;0.00;;;;;;;;;;5015373;28;20022;-56
2021/01/22 05:58:40;;;;;;;0.03;0.00;;;;;;;;;;5013884;28;20120;-57
2021/01/22 06:01:09;;;;;;;0.50;0.30;;;;;;;;;;5034273;28;20040;-57
2021/01/22 06:03:44;;;;;;;0.40;0.15;;;;;;;;;;5033337;28;20475;-56
2021/01/22 06:06:19;;;;;;;0.30;0.10;;;;;;;;;;5015597;28;20021;-55
2021/01/22 06:09:00;;;;;;;0.73;0.15;;;;;;;;;;5032701;28;20049;-57
2021/01/22 06:11:29;;;;;;;0.55;0.25;;;;;;;;;;5033830;28;20102;-56
2021/01/22 06:14:17;;;;;;;1.05;0.15;;;;;;;;;;5032981;28;20026;-57
2021/01/22 06:17:00;;;;;;;0.20;0.10;;;;;;;;;;5032885;28;20029;-55
2021/01/22 06:19:53;;;;;;;1.35;0.25;;;;;;;;;;5015361;28;20124;-57
2021/01/22 06:22:36;;;;;;;0.63;0.32;;;;;;;;;;5018396;28;20030;-57
2021/01/22 06:25:16;;;;;;;0.13;0.05;;;;;;;;;;5015751;28;20033;-57
2021/01/22 06:28:07;;;;;;;0.93;0.25;;;;;;;;;;4999371;28;20491;-57
2021/01/22 06:30:37;;;;;;;1.48;0.88;;;;;;;;;;5033553;28;20029;-57
2021/01/22 06:33:13;;;;;;;1.20;0.30;;;;;;;;;;5015355;28;20030;-57
2021/01/22 06:35:45;;;;;;;0.85;0.20;;;;;;;;;;5014799;28;20399;-57
2021/01/22 06:38:37;;;;;;;;;;;;;;;;;;;;;
2021/01/22 06:41:13;;;;;;;1.10;0.20;;;;;;;;;;5030585;28;20050;-57
2021/01/22 06:43:50;;;;;;;;;;;;;;;;;;;;;
2021/01/22 06:46:20;;;;;;;0.43;0.20;;;;;;;;;;5034667;28;20362;-58
2021/01/22 06:49:05;;;;;;;0.80;0.30;;;;;;;;;;5032514;28;20088;-55
2021/01/22 06:51:38;;;;;;;0.68;0.40;;;;;;;;;;5010911;28;20509;-56
2021/01/22 06:54:24;;;;;;;1.05;0.35;;;;;;;;;;5030051;28;20378;-56
2021/01/22 06:56:56;;;;;;;2.85;0.70;;;;;;;;;;5032414;28;20025;-57
2021/01/22 06:59:25;;;;;;;1.85;0.68;;;;;;;;;;5032212;28;20030;-56
2021/01/22 07:01:54;;;;;;;1.20;0.32;;;;;;;;;;5032345;28;20033;-54
2021/01/22 07:05:01;;;;;;;1.55;0.20;;;;;;;;;;5031837;28;20029;-56
2021/01/22 07:07:48;;;;;;;0.40;0.15;;;;;;;;;;5033005;28;20030;-54
2021/01/22 07:10:31;;;;;;;0.57;0.40;;;;;;;;;;5015405;28;20033;-56
2021/01/22 07:13:05;;;;;;;0.52;0.25;;;;;;;;;;5015009;28;20030;-57
2021/01/22 07:15:42;;;;;;;0.52;0.40;;;;;;;;;;5038256;28;20029;-57
2021/01/22 07:18:16;;;;;;;0.35;0.20;;;;;;;;;;5032772;28;20057;-56
2021/01/22 07:20:48;;;;;;;2.15;0.30;;;;;;;;;;5032311;28;20048;-57
2021/01/22 07:23:20;;;;;;;0.80;0.20;;;;;;;;;;5031760;28;20056;-55
2021/01/22 07:26:05;;;;;;;1.48;0.45;;;;;;;;;;5015079;28;20021;-56
2021/01/22 07:29:04;;;;;;;0.25;0.10;;;;;;;;;;5032270;28;20026;-56
2021/01/22 07:31:57;;;;;;;0.93;0.15;;;;;;;;;;5051911;28;20451;-56
2021/01/22 07:34:49;;;;;;;8.25;0.63;;;;;;;;;;5031881;28;20078;-56
2021/01/22 07:37:25;;;;;;;0.95;0.30;;;;;;;;;;5013952;28;20025;-54
2021/01/22 07:40:06;;;;;;;0.22;0.15;;;;;;;;;;5032423;28;20034;-56
2021/01/22 07:42:41;;;;;;;1.02;0.50;;;;;;;;;;5016149;28;20026;-56
2021/01/22 07:45:21;;;;;;;5.32;0.40;;;;;;;;;;5031067;28;20387;-55
2021/01/22 07:48:04;;;;;;;;;;;;;;;;;;;;;
2021/01/22 07:50:31;;;;;;;0.82;0.40;;;;;;;;;;5032297;28;20035;-55
2021/01/22 07:53:03;;;;;;;0.35;0.10;;;;;;;;;;5031295;28;20032;-56
2021/01/22 07:55:29;;;;;;;0.60;0.17;;;;;;;;;;5031175;28;20034;-55
2021/01/22 07:58:14;;;;;;;2.03;0.63;;;;;;;;;;5031010;28;20490;-54
2021/01/22 08:00:45;;;;;;;0.38;0.20;;;;;;;;;;5013813;28;20033;-55
2021/01/22 08:03:13;;;;;;;1.55;0.75;;;;;;;;;;5031754;28;20098;-55
2021/01/22 08:05:50;;;;;;;0.80;0.50;;;;;;;;;;5012916;28;20033;-57
2021/01/22 08:08:20;;;;;;;0.43;0.20;;;;;;;;;;5015218;28;20085;-55
2021/01/22 08:10:55;;;;;;;0.80;0.50;;;;;;;;;;5031120;28;20049;-56
2021/01/22 08:13:24;;;;;;;0.82;0.20;;;;;;;;;;5030873;28;20022;-57
2021/01/22 08:16:16;;;;;;;0.73;0.20;;;;;;;;;;5030959;28;20057;-54
2021/01/22 08:18:54;;;;;;;1.65;0.47;;;;;;;;;;5030681;28;20026;-56
2021/01/22 08:21:31;;;;;;;1.38;0.50;;;;;;;;;;5030673;28;20059;-56
2021/01/22 08:24:00;;;;;;;0.22;0.20;;;;;;;;;;5031299;28;20074;-57
2021/01/22 08:26:40;;;;;;;0.50;0.25;;;;;;;;;;5028690;28;20034;-57
2021/01/22 08:29:16;;;;;;;0.55;0.20;;;;;;;;;;5030837;28;20093;-56
2021/01/22 08:31:53;;;;;;;2.55;0.55;;;;;;;;;;5029639;28;20363;-56
2021/01/22 08:34:20;;;;;;;1.40;0.20;;;;;;;;;;5030723;28;20441;-58
2021/01/22 08:36:55;;;;;;;0.35;0.25;;;;;;;;;;5031591;28;20022;-58
2021/01/22 08:39:44;;;;;;;0.45;0.15;;;;;;;;;;5032665;28;20414;-59
2021/01/22 08:42:13;;;;;;;0.90;0.28;;;;;;;;;;5030724;28;20085;-53
2021/01/22 08:45:00;;;;;;;1.33;0.38;;;;;;;;;;5030953;28;20029;-55
2021/01/22 08:47:32;;;;;;;0.73;0.25;;;;;;;;;;5031121;28;20025;-55
2021/01/22 08:50:01;;;;;;;1.95;0.50;;;;;;;;;;5029338;28;20398;-55
2021/01/22 08:53:05;;;;;;;0.30;0.10;;;;;;;;;;5031231;28;20022;-58
2021/01/22 08:55:32;;;;;;;1.80;0.65;;;;;;;;;;5031030;28;20057;-57
2021/01/22 08:58:04;;;;;;;1.27;0.47;;;;;;;;;;5033110;28;20394;-58
2021/01/22 09:00:34;;;;;;;0.88;0.40;;;;;;;;;;5033262;28;20036;-58
2021/01/22 09:05:58;;;;;;;0.82;0.32;;;;;;;;;;5025872;28;20108;-56
2021/01/22 09:08:33;;;;;;;;;;;;;;;;;;5034497;28;20102;-56
2021/01/22 09:11:31;;;;;;;2.20;0.50;;;;;;;;;;5034789;28;19905;-54
2021/01/22 09:13:58;;;;;;;0.65;0.30;;;;;;;;;;5015287;28;20462;-56
2021/01/22 09:19:15;;;;;;;1.88;0.30;;;;;;;;;;5034100;28;20543;-54
2021/01/22 09:22:02;;;;;;;0.60;0.20;;;;;;;;;;5034218;28;20025;-56
2021/01/22 09:24:53;;;;;;;0.55;0.30;;;;;;;;;;5085472;28;20124;-54
2021/01/22 09:27:35;;;;;;;0.88;0.60;;;;;;;;;;5033769;28;20037;-56
2021/01/22 09:33:00;;;;;;;0.43;0.10;;;;;;;;;;5033640;28;20162;-54
2021/01/22 09:35:30;;;;;;;1.45;0.38;;;;;;;;;;5016566;28;20025;-55
2021/01/22 09:38:04;;;;;;;0.47;0.15;;;;;;;;;;5033665;28;20108;-56
2021/01/22 09:40:31;;;;;;;4.57;0.50;;;;;;;;;;5033353;28;20134;-57
2021/01/22 09:42:59;;;;;;;0.57;0.28;;;;;;;;;;5033519;28;20036;-55
2021/01/22 09:45:37;;;;;;;1.33;0.30;;;;;;;;;;5033365;28;20099;-57
2021/01/22 09:48:25;;;;;;;1.95;0.43;;;;;;;;;;5033228;28;20036;-59
2021/01/22 09:50:56;;;;;;;4.50;0.63;;;;;;;;;;5033961;28;20033;-57
2021/01/22 09:53:25;;;;;;;1.10;0.43;;;;;;;;;;5033737;28;20026;-57
2021/01/22 09:55:57;;;;;;;0.73;0.28;;;;;;;;;;5016250;28;20036;-57
2021/01/22 09:58:31;;;;;;;0.40;0.20;;;;;;;;;;5033347;28;20033;-56
2021/01/22 10:00:58;;;;;;;1.92;0.73;;;;;;;;;;5015419;28;20044;-57
2021/01/22 10:03:29;;;;;;;2.47;1.05;;;;;;;;;;5033198;28;20378;-56
2021/01/22 10:06:00;;;;;;;0.70;0.30;;;;;;;;;;5033210;28;20040;-57
2021/01/22 10:08:26;;;;;;;;;;;;;;;;;;5037807;27;20057;-57
2021/01/22 10:10:57;;;;;;;1.20;0.55;;;;;;;;;;5053152;28;20368;-53
2021/01/22 10:13:33;;;;;;;1.88;0.65;;;;;;;;;;5035236;28;20029;-56
2021/01/22 10:16:05;;;;;;;1.42;0.60;;;;;;;;;;5052609;28;20037;-56
2021/01/22 10:18:39;;;;;;;2.10;0.63;;;;;;;;;;5052924;28;20025;-57
2021/01/22 10:21:08;;;;;;;1.20;0.70;;;;;;;;;;5052719;28;20029;-55
2021/01/22 10:23:40;;;;;;;0.22;0.15;;;;;;;;;;5035217;28;20359;-57
2021/01/22 10:26:16;;;;;;;1.88;0.43;;;;;;;;;;5053253;28;20025;-57
2021/01/22 10:28:48;;;;;;;1.02;0.28;;;;;;;;;;5052763;28;20021;-57
2021/01/22 10:31:15;;;;;;;0.80;0.63;;;;;;;;;;5052260;28;20120;-57
2021/01/22 10:33:47;;;;;;;3.40;0.85;;;;;;;;;;5034367;28;20082;-56
2021/01/22 10:36:14;;;;;;;0.77;0.45;;;;;;;;;;5053131;28;20119;-58
2021/01/22 10:38:42;;;;;;;0.32;0.20;;;;;;;;;;5052165;28;20462;-57
2021/01/22 10:41:31;;;;;;;1.17;0.75;;;;;;;;;;5053074;28;20029;-58
2021/01/22 10:44:15;;;;;;;0.88;0.30;;;;;;;;;;5053775;28;20033;-58
2021/01/22 10:46:49;;;;;;;1.90;0.60;;;;;;;;;;5052116;28;20593;-58
2021/01/22 10:49:26;;;;;;;0.43;0.17;;;;;;;;;;5052427;28;20044;-58
2021/01/22 10:51:55;;;;;;;1.42;0.52;;;;;;;;;;5052922;28;20073;-56
2021/01/22 10:54:30;;;;;;;0.52;0.25;;;;;;;;;;5052575;28;20025;-56
2021/01/22 10:57:05;;;;;;;0.80;0.50;;;;;;;;;;5052638;28;20029;-57
2021/01/22 10:59:34;;;;;;;1.02;0.25;;;;;;;;;;5051317;28;20129;-55
2021/01/22 11:02:03;;;;;;;0.40;0.17;;;;;;;;;;5052218;28;20064;-57
2021/01/22 11:04:34;;;;;;;2.03;0.45;;;;;;;;;;5034503;28;20033;-55
2021/01/22 11:07:13;;;;;;;0.98;0.43;;;;;;;;;;5052734;28;20033;-56
2021/01/22 11:09:43;;;;;;;0.55;0.30;;;;;;;;;;5052258;27;20427;-53
2021/01/22 11:12:09;;;;;;;0.30;0.20;;;;;;;;;;5135064;27;20044;-54
2021/01/22 11:14:40;;;;;;;0.95;0.30;;;;;;;;;;5018131;28;20033;-55
2021/01/22 11:17:06;;;;;;;0.80;0.38;;;;;;;;;;5121790;27;20077;-56
2021/01/22 11:19:47;;;;;;;0.50;0.20;;;;;;;;;;5033088;28;20405;-56
2021/01/22 11:22:16;;;;;;;0.93;0.25;;;;;;;;;;5034460;28;20033;-57
2021/01/22 11:24:48;;;;;;;1.05;0.52;;;;;;;;;;5051836;28;20029;-56
2021/01/22 11:27:20;;;;;;;0.65;0.25;;;;;;;;;;5051992;28;20487;-55
2021/01/22 11:29:47;;;;;;;0.95;0.50;;;;;;;;;;5051138;28;20044;-55
2021/01/22 11:32:15;;;;;;;0.93;0.40;;;;;;;;;;5051416;28;20134;-56
2021/01/22 11:34:47;;;;;;;0.50;0.22;;;;;;;;;;5033845;28;20031;-56
2021/01/22 11:37:17;;;;;;;0.40;0.20;;;;;;;;;;5051724;28;20025;-57
2021/01/22 11:39:45;;;;;;;0.38;0.10;;;;;;;;;;5051343;28;20029;-56
2021/01/22 11:42:19;;;;;;;1.15;0.30;;;;;;;;;;5051831;28;20101;-57
2021/01/22 11:44:48;;;;;;;0.47;0.22;;;;;;;;;;5051707;28;20041;-57
2021/01/22 11:47:17;;;;;;;0.43;0.20;;;;;;;;;;5051261;28;20021;-57
2021/01/22 11:49:43;;;;;;;0.45;0.28;;;;;;;;;;5033491;28;20044;-56
2021/01/22 11:52:18;;;;;;;0.40;0.17;;;;;;;;;;5034501;28;20013;-57
2021/01/22 11:54:44;;;;;;;0.65;0.20;;;;;;;;;;5051166;28;20040;-57
2021/01/22 11:57:10;;;;;;;0.70;0.30;;;;;;;;;;5051255;28;20493;-55
2021/01/22 11:59:39;;;;;;;0.85;0.40;;;;;;;;;;5033129;28;20032;-57
2021/01/22 12:02:07;;;;;;;0.65;0.30;;;;;;;;;;5051932;28;20025;-56
2021/01/22 12:04:34;;;;;;;0.47;0.15;;;;;;;;;;5051030;28;20117;-53
2021/01/22 12:07:00;;;;;;;0.45;0.20;;;;;;;;;;5033323;28;20040;-56
2021/01/22 12:09:36;;;;;;;2.03;0.30;;;;;;;;;;5051106;28;20117;-54
2021/01/22 12:12:04;;;;;;;0.30;0.20;;;;;;;;;;5043244;28;20037;-53
2021/01/22 12:14:33;;;;;;;1.52;0.22;;;;;;;;;;5050964;28;20091;-56
2021/01/22 12:17:07;;;;;;;0.30;0.15;;;;;;;;;;5051571;28;20026;-55
2021/01/22 12:19:33;;;;;;;1.20;0.30;;;;;;;;;;5050871;28;20029;-56
2021/01/22 12:22:01;;;;;;;3.20;0.52;;;;;;;;;;5051273;28;20049;-57
2021/01/22 12:24:28;;;;;;;1.05;0.45;;;;;;;;;;5032681;28;20081;-55
2021/01/22 12:26:57;;;;;;;0.80;0.50;;;;;;;;;;5033929;28;20120;-54
2021/01/22 12:29:32;;;;;;;3.53;0.90;;;;;;;;;;5050770;28;20389;-56
2021/01/22 12:32:08;;;;;;;1.70;0.45;;;;;;;;;;5050669;28;20116;-56
2021/01/22 12:34:38;;;;;;;0.80;0.40;;;;;;;;;;5033817;28;20033;-53
2021/01/22 12:37:04;;;;;;;0.60;0.30;;;;;;;;;;5032886;28;20116;-57
2021/01/22 12:39:31;;;;;;;2.33;0.60;;;;;;;;;;5034090;28;20116;-56
2021/01/22 12:42:00;;;;;;;0.60;0.30;;;;;;;;;;5050522;28;20037;-57
2021/01/22 12:44:29;;;;;;;1.92;0.77;;;;;;;;;;5050601;28;20108;-57
2021/01/22 12:46:57;;;;;;;2.60;0.43;;;;;;;;;;5050538;28;20029;-55
2021/01/22 12:49:25;;;;;;;0.17;0.10;;;;;;;;;;5050685;28;20082;-54
2021/01/22 12:51:52;;;;;;;2.85;0.13;;;;;;;;;;5050496;28;20033;-55
2021/01/22 12:54:21;;;;;;;1.67;0.47;;;;;;;;;;5050102;28;20025;-57
2021/01/22 12:56:49;;;;;;;0.28;0.10;;;;;;;;;;5050374;28;20078;-55
2021/01/22 12:59:18;;;;;;;0.45;0.20;;;;;;;;;;5050704;28;20029;-56
2021/01/22 13:01:47;;;;;;;0.30;0.10;;;;;;;;;;5050556;28;20064;-57
2021/01/22 13:04:21;;;;;;;0.52;0.30;;;;;;;;;;5049823;28;20470;-54
2021/01/22 13:06:50;;;;;;;1.38;0.40;;;;;;;;;;5050467;28;20431;-56
2021/01/22 13:09:25;;;;;;;0.35;0.15;;;;;;;;;;5050323;27;20053;-57
2021/01/22 13:11:51;;;;;;;2.00;0.60;;;;;;;;;;5050362;28;20504;-55
2021/01/22 13:14:22;;;;;;;1.45;0.32;;;;;;;;;;5050051;28;20025;-56
2021/01/22 13:16:56;;;;;;;1.15;0.45;;;;;;;;;;5050298;28;20111;-54
2021/01/22 13:19:25;;;;;;;0.75;0.30;;;;;;;;;;5033274;28;20378;-55
2021/01/22 13:21:51;;;;;;;0.70;0.35;;;;;;;;;;5050287;28;20101;-57
2021/01/22 13:24:22;;;;;;;0.25;0.10;;;;;;;;;;5050130;28;20025;-57
2021/01/22 13:26:54;;;;;;;1.00;0.30;;;;;;;;;;5049903;28;20374;-55
2021/01/22 13:29:25;;;;;;;0.22;0.03;;;;;;;;;;5050482;28;20033;-55
2021/01/22 13:31:55;;;;;;;0.52;0.30;;;;;;;;;;5049491;28;20029;-55
2021/01/22 13:34:25;;;;;;;0.57;0.30;;;;;;;;;;5049842;28;20032;-55
2021/01/22 13:36:56;;;;;;;0.65;0.30;;;;;;;;;;5049442;28;20495;-57
2021/01/22 13:39:22;;;;;;;0.57;0.35;;;;;;;;;;5049665;28;20162;-55
2021/01/22 13:41:50;;;;;;;1.52;0.40;;;;;;;;;;5051097;28;20036;-56
2021/01/22 13:44:17;;;;;;;1.08;0.45;;;;;;;;;;5052942;28;20474;-57
2021/01/22 13:46:43;;;;;;;0.43;0.22;;;;;;;;;;5054016;28;20025;-56
2021/01/22 13:49:15;;;;;;;0.70;0.35;;;;;;;;;;5035556;28;20116;-54
2021/01/22 13:51:41;;;;;;;0.95;0.20;;;;;;;;;;5036568;28;20032;-55
2021/01/22 13:54:17;;;;;;;1.30;0.40;;;;;;;;;;5054063;28;20025;-57
2021/01/22 13:57:07;;;;;;;0.80;0.40;;;;;;;;;;5053048;28;20024;-56
2021/01/22 13:59:38;;;;;;;1.67;0.95;;;;;;;;;;5052904;28;20029;-57
2021/01/22 14:02:04;;;;;;;1.95;1.02;;;;;;;;;;5034973;28;20370;-55
2021/01/22 14:04:37;;;;;;;2.22;1.05;;;;;;;;;;5052642;28;20112;-55
2021/01/22 14:07:03;;;;;;;2.85;0.93;;;;;;;;;;5053076;28;20070;-54
2021/01/22 14:09:49;;;;;;;3.10;1.48;;;;;;;;;;5034818;28;20144;-56
2021/01/22 14:12:18;;;;;;;2.40;0.95;;;;;;;;;;5053190;28;20057;-55
2021/01/22 14:14:53;;;;;;;3.25;1.23;;;;;;;;;;5035764;28;20028;-56
2021/01/22 14:17:21;;;;;;;2.03;1.48;;;;;;;;;;5034872;28;20036;-51
2021/01/22 14:19:50;;;;;;;7.00;1.77;;;;;;;;;;5052676;28;20032;-56
2021/01/22 14:22:16;;;;;;;2.63;1.48;;;;;;;;;;5053071;28;20029;-56
2021/01/22 14:24:48;;;;;;;2.47;1.73;;;;;;;;;;5052145;28;20041;-53
2021/01/22 14:27:22;;;;;;;3.00;1.45;;;;;;;;;;5053259;28;20103;-55
2021/01/22 14:29:54;;;;;;;3.30;1.80;;;;;;;;;;5052844;28;20187;-55
2021/01/22 14:32:33;;;;;;;2.38;1.75;;;;;;;;;;5034725;28;20032;-56
2021/01/22 14:35:03;;;;;;;3.65;2.20;;;;;;;;;;5035565;28;20416;-56
2021/01/22 14:37:37;;;;;;;3.80;1.92;;;;;;;;;;5034540;28;20041;-56
2021/01/22 14:40:07;;;;;;;3.13;2.17;;;;;;;;;;5052511;28;20033;-56
2021/01/22 14:42:33;;;;;;;2.78;1.85;;;;;;;;;;5035255;28;20040;-53
2021/01/22 14:45:02;;;;;;;3.95;2.78;;;;;;;;;;5051830;28;20033;-53
2021/01/22 14:47:36;;;;;;;3.03;2.30;;;;;;;;;;5035143;28;20060;-56
2021/01/22 14:50:06;;;;;;;2.90;2.50;;;;;;;;;;5034324;28;20033;-55
2021/01/22 14:53:00;;;;;;;3.08;2.63;;;;;;;;;;5035395;28;20359;-54
2021/01/22 14:55:35;;;;;;;3.42;3.03;;;;;;;;;;5052734;28;20037;-56
2021/01/22 14:58:04;;;;;;;3.92;3.13;;;;;;;;;;5034947;28;20061;-55
2021/01/22 15:00:52;;;;;;;4.40;3.15;;;;;;;;;;5052036;28;20050;-56
2021/01/22 15:03:38;;;;;;;4.85;2.67;;;;;;;;;;5051808;28;20032;-56
2021/01/22 15:06:10;;;;;;;4.03;2.28;;;;;;;;;;5034321;28;20029;-55
2021/01/22 15:08:42;;;;;;;2.40;1.90;;;;;;;;;;5034027;28;20049;-55
2021/01/22 15:11:11;;;;;;;2.97;2.22;;;;;;;;;;5034794;28;20056;-53
2021/01/22 15:13:52;;;;;;;2.78;2.08;;;;;;;;;;5034422;28;20117;-55
2021/01/22 15:16:22;;;;;;;2.65;1.60;;;;;;;;;;5035088;28;20116;-55
2021/01/22 15:19:01;;;;;;;3.47;1.98;;;;;;;;;;5051823;28;20458;-53
2021/01/22 15:21:33;;;;;;;3.25;1.95;;;;;;;;;;5052117;28;20036;-55
2021/01/22 15:24:14;;;;;;;4.13;2.28;;;;;;;;;;5052551;28;20452;-52
2021/01/22 15:26:56;;;;;;;3.25;2.40;;;;;;;;;;5034658;28;20029;-56
2021/01/22 15:29:35;;;;;;;2.13;1.60;;;;;;;;;;5051825;28;20153;-56
2021/01/22 15:32:28;;;;;;;4.07;2.42;;;;;;;;;;5051790;28;20029;-53
2021/01/22 15:35:19;;;;;;;2.50;1.73;;;;;;;;;;5051904;28;20029;-57
2021/01/22 15:38:08;;;;;;;3.60;1.83;;;;;;;;;;5058252;28;20047;-56
2021/01/22 15:40:37;;;;;;;2.72;2.20;;;;;;;;;;5051438;28;20025;-55
2021/01/22 15:43:13;;;;;;;3.30;2.28;;;;;;;;;;5051981;28;20437;-57
2021/01/22 15:45:48;;;;;;;4.70;2.00;;;;;;;;;;5034632;28;20029;-57
2021/01/22 15:48:26;;;;;;;2.67;2.30;;;;;;;;;;5052957;28;20021;-55
2021/01/22 15:51:07;;;;;;;3.00;2.10;;;;;;;;;;5052465;28;20104;-57
2021/01/22 15:53:35;;;;;;;3.37;2.77;;;;;;;;;;5052068;28;20033;-58
2021/01/22 15:56:07;;;;;;;3.67;2.70;;;;;;;;;;5051298;28;20255;-56
2021/01/22 15:58:39;;;;;;;3.75;2.95;;;;;;;;;;5033810;28;20482;-57
2021/01/22 16:01:11;;;;;;;3.53;3.20;;;;;;;;;;5050952;28;20076;-56
2021/01/22 16:03:52;;;;;;;4.60;3.63;;;;;;;;;;5051659;28;20033;-56
2021/01/22 16:06:30;;;;;;;4.20;3.70;;;;;;;;;;5051087;28;20056;-57
2021/01/22 16:09:03;;;;;;;5.23;3.93;;;;;;;;;;5057963;27;20457;-57
2021/01/22 16:11:30;;;;;;;7.57;2.97;;;;;;;;;;5035084;28;20037;-58
2021/01/22 16:13:59;;;;;;;3.97;3.63;;;;;;;;;;5051262;28;20366;-57
2021/01/22 16:16:28;;;;;;;4.40;3.70;;;;;;;;;;5051065;28;20029;-58
2021/01/22 16:19:26;;;;;;;;;;;;;;;;;;;;;
2021/01/22 16:21:53;;;;;;;5.67;4.70;;;;;;;;;;5048670;28;20037;-58
2021/01/22 16:24:20;;;;;;;4.83;4.30;;;;;;;;;;5033683;28;20534;-58